sensor_id;sensor_type;location;lat;lon;timestamp;P1;durP1;ratioP1;P2;durP2;ratioP2
12601;SDS011;30282;16.436;99.370;2024-01-07T00:02:07;30.10;;;18.00;;
12601;SDS011;30282;16.436;99.370;2024-01-07T00:04:36;32.20;;;20.00;;
12601;SDS011;30282;16.436;99.370;2024-01-07T00:07:07;32.13;;;21.83;;
12601;SDS011;30282;16.436;99.370;2024-01-07T00:09:36;45.63;;;27.17;;
12601;SDS011;30282;16.436;99.370;2024-01-07T00:12:07;49.00;;;24.77;;
12601;SDS011;30282;16.436;99.370;2024-01-07T00:14:36;57.10;;;29.13;;
12601;SDS011;30282;16.436;99.370;2024-01-07T00:17:05;100.17;;;34.80;;
12601;SDS011;30282;16.436;99.370;2024-01-07T00:19:35;45.73;;;24.53;;
12601;SDS011;30282;16.436;99.370;2024-01-07T00:22:06;38.60;;;21.20;;
12601;SDS011;30282;16.436;99.370;2024-01-07T00:24:35;43.13;;;21.03;;
12601;SDS011;30282;16.436;99.370;2024-01-07T00:27:04;45.07;;;23.80;;
12601;SDS011;30282;16.436;99.370;2024-01-07T00:29:35;54.73;;;30.43;;
12601;SDS011;30282;16.436;99.370;2024-01-07T00:32:05;56.20;;;23.87;;
12601;SDS011;30282;16.436;99.370;2024-01-07T00:34:37;33.77;;;20.90;;
12601;SDS011;30282;16.436;99.370;2024-01-07T00:37:06;46.23;;;26.83;;
12601;SDS011;30282;16.436;99.370;2024-01-07T00:39:35;46.30;;;26.10;;
12601;SDS011;30282;16.436;99.370;2024-01-07T00:42:04;35.70;;;21.60;;
12601;SDS011;30282;16.436;99.370;2024-01-07T00:44:35;41.87;;;24.03;;
12601;SDS011;30282;16.436;99.370;2024-01-07T00:47:05;36.73;;;24.40;;
12601;SDS011;30282;16.436;99.370;2024-01-07T00:49:35;35.87;;;22.87;;
12601;SDS011;30282;16.436;99.370;2024-01-07T00:52:05;27.93;;;19.07;;
12601;SDS011;30282;16.436;99.370;2024-01-07T00:54:34;33.77;;;20.97;;
12601;SDS011;30282;16.436;99.370;2024-01-07T00:57:04;29.83;;;20.07;;
12601;SDS011;30282;16.436;99.370;2024-01-07T00:59:34;31.37;;;20.00;;
12601;SDS011;30282;16.436;99.370;2024-01-07T01:02:04;30.63;;;19.13;;
12601;SDS011;30282;16.436;99.370;2024-01-07T01:04:33;33.20;;;20.57;;
12601;SDS011;30282;16.436;99.370;2024-01-07T01:07:05;29.13;;;19.97;;
12601;SDS011;30282;16.436;99.370;2024-01-07T01:09:35;32.30;;;19.10;;
12601;SDS011;30282;16.436;99.370;2024-01-07T01:12:04;30.70;;;19.73;;
12601;SDS011;30282;16.436;99.370;2024-01-07T01:14:35;36.53;;;19.40;;
12601;SDS011;30282;16.436;99.370;2024-01-07T01:17:04;29.97;;;18.07;;
12601;SDS011;30282;16.436;99.370;2024-01-07T01:19:33;32.97;;;21.10;;
12601;SDS011;30282;16.436;99.370;2024-01-07T01:22:02;38.70;;;20.90;;
12601;SDS011;30282;16.436;99.370;2024-01-07T01:24:32;29.83;;;19.67;;
12601;SDS011;30282;16.436;99.370;2024-01-07T01:27:01;29.50;;;19.00;;
12601;SDS011;30282;16.436;99.370;2024-01-07T01:29:30;31.70;;;17.57;;
12601;SDS011;30282;16.436;99.370;2024-01-07T01:32:00;46.27;;;21.63;;
12601;SDS011;30282;16.436;99.370;2024-01-07T01:34:30;38.13;;;18.50;;
12601;SDS011;30282;16.436;99.370;2024-01-07T01:36:59;27.63;;;17.23;;
12601;SDS011;30282;16.436;99.370;2024-01-07T01:39:28;27.23;;;16.13;;
12601;SDS011;30282;16.436;99.370;2024-01-07T01:41:57;31.53;;;15.63;;
12601;SDS011;30282;16.436;99.370;2024-01-07T01:44:26;28.67;;;15.30;;
12601;SDS011;30282;16.436;99.370;2024-01-07T01:46:57;26.93;;;14.17;;
12601;SDS011;30282;16.436;99.370;2024-01-07T01:49:28;24.03;;;12.50;;
12601;SDS011;30282;16.436;99.370;2024-01-07T01:51:57;23.13;;;13.97;;
12601;SDS011;30282;16.436;99.370;2024-01-07T01:54:26;19.33;;;13.50;;
12601;SDS011;30282;16.436;99.370;2024-01-07T01:56:55;23.70;;;13.53;;
12601;SDS011;30282;16.436;99.370;2024-01-07T01:59:25;26.53;;;12.90;;
12601;SDS011;30282;16.436;99.370;2024-01-07T02:01:56;25.60;;;13.00;;
12601;SDS011;30282;16.436;99.370;2024-01-07T02:04:27;26.20;;;11.93;;
12601;SDS011;30282;16.436;99.370;2024-01-07T02:06:56;19.43;;;11.50;;
12601;SDS011;30282;16.436;99.370;2024-01-07T02:09:25;19.17;;;11.50;;
12601;SDS011;30282;16.436;99.370;2024-01-07T02:12:01;20.83;;;12.23;;
12601;SDS011;30282;16.436;99.370;2024-01-07T02:14:30;20.20;;;11.57;;
12601;SDS011;30282;16.436;99.370;2024-01-07T02:17:00;20.43;;;12.03;;
12601;SDS011;30282;16.436;99.370;2024-01-07T02:19:31;19.53;;;12.07;;
12601;SDS011;30282;16.436;99.370;2024-01-07T02:22:00;19.27;;;11.63;;
12601;SDS011;30282;16.436;99.370;2024-01-07T02:24:31;19.00;;;12.17;;
12601;SDS011;30282;16.436;99.370;2024-01-07T02:27:00;23.83;;;12.00;;
12601;SDS011;30282;16.436;99.370;2024-01-07T02:29:29;20.43;;;11.50;;
12601;SDS011;30282;16.436;99.370;2024-01-07T02:31:58;23.03;;;13.23;;
12601;SDS011;30282;16.436;99.370;2024-01-07T02:34:27;29.87;;;12.27;;
12601;SDS011;30282;16.436;99.370;2024-01-07T02:36:56;24.57;;;11.90;;
12601;SDS011;30282;16.436;99.370;2024-01-07T02:39:25;22.60;;;12.10;;
12601;SDS011;30282;16.436;99.370;2024-01-07T02:41:56;21.80;;;11.87;;
12601;SDS011;30282;16.436;99.370;2024-01-07T02:44:25;18.83;;;11.00;;
12601;SDS011;30282;16.436;99.370;2024-01-07T02:46:54;15.47;;;11.13;;
12601;SDS011;30282;16.436;99.370;2024-01-07T02:49:23;21.93;;;11.43;;
12601;SDS011;30282;16.436;99.370;2024-01-07T02:51:52;21.77;;;11.97;;
12601;SDS011;30282;16.436;99.370;2024-01-07T02:54:21;20.03;;;11.60;;
12601;SDS011;30282;16.436;99.370;2024-01-07T02:56:49;20.23;;;12.37;;
12601;SDS011;30282;16.436;99.370;2024-01-07T02:59:20;20.27;;;11.30;;
12601;SDS011;30282;16.436;99.370;2024-01-07T03:01:49;18.67;;;12.00;;
12601;SDS011;30282;16.436;99.370;2024-01-07T03:04:18;24.63;;;12.20;;
12601;SDS011;30282;16.436;99.370;2024-01-07T03:06:47;20.33;;;12.23;;
12601;SDS011;30282;16.436;99.370;2024-01-07T03:09:16;26.10;;;13.70;;
12601;SDS011;30282;16.436;99.370;2024-01-07T03:11:45;21.10;;;13.53;;
12601;SDS011;30282;16.436;99.370;2024-01-07T03:14:14;23.90;;;13.50;;
12601;SDS011;30282;16.436;99.370;2024-01-07T03:16:48;20.60;;;13.60;;
12601;SDS011;30282;16.436;99.370;2024-01-07T03:19:17;25.53;;;14.37;;
12601;SDS011;30282;16.436;99.370;2024-01-07T03:21:48;24.10;;;14.30;;
12601;SDS011;30282;16.436;99.370;2024-01-07T03:24:17;21.10;;;14.83;;
12601;SDS011;30282;16.436;99.370;2024-01-07T03:26:46;25.80;;;14.13;;
12601;SDS011;30282;16.436;99.370;2024-01-07T03:29:16;30.53;;;14.43;;
12601;SDS011;30282;16.436;99.370;2024-01-07T03:31:47;24.70;;;14.33;;
12601;SDS011;30282;16.436;99.370;2024-01-07T03:34:16;24.23;;;15.10;;
12601;SDS011;30282;16.436;99.370;2024-01-07T03:36:45;30.33;;;14.60;;
12601;SDS011;30282;16.436;99.370;2024-01-07T03:39:14;27.90;;;16.27;;
12601;SDS011;30282;16.436;99.370;2024-01-07T03:41:44;27.00;;;14.67;;
12601;SDS011;30282;16.436;99.370;2024-01-07T03:44:13;22.77;;;14.97;;
12601;SDS011;30282;16.436;99.370;2024-01-07T03:46:42;31.47;;;16.10;;
12601;SDS011;30282;16.436;99.370;2024-01-07T03:49:12;26.73;;;14.03;;
12601;SDS011;30282;16.436;99.370;2024-01-07T03:51:42;38.30;;;13.50;;
12601;SDS011;30282;16.436;99.370;2024-01-07T03:54:11;30.17;;;13.80;;
12601;SDS011;30282;16.436;99.370;2024-01-07T03:56:40;16.77;;;10.43;;
12601;SDS011;30282;16.436;99.370;2024-01-07T03:59:09;15.90;;;8.90;;
12601;SDS011;30282;16.436;99.370;2024-01-07T04:01:38;13.73;;;9.03;;
12601;SDS011;30282;16.436;99.370;2024-01-07T04:04:07;14.77;;;9.03;;
12601;SDS011;30282;16.436;99.370;2024-01-07T04:06:38;17.83;;;9.87;;
12601;SDS011;30282;16.436;99.370;2024-01-07T04:09:07;19.20;;;10.10;;
12601;SDS011;30282;16.436;99.370;2024-01-07T04:11:39;20.67;;;11.23;;
12601;SDS011;30282;16.436;99.370;2024-01-07T04:14:08;18.13;;;10.60;;
12601;SDS011;30282;16.436;99.370;2024-01-07T04:16:37;19.50;;;10.03;;
12601;SDS011;30282;16.436;99.370;2024-01-07T04:19:06;19.63;;;10.87;;
12601;SDS011;30282;16.436;99.370;2024-01-07T04:21:47;20.20;;;10.90;;
12601;SDS011;30282;16.436;99.370;2024-01-07T04:24:16;17.97;;;11.20;;
12601;SDS011;30282;16.436;99.370;2024-01-07T04:26:47;27.23;;;10.87;;
12601;SDS011;30282;16.436;99.370;2024-01-07T04:29:16;21.20;;;11.93;;
12601;SDS011;30282;16.436;99.370;2024-01-07T04:31:45;21.53;;;11.40;;
12601;SDS011;30282;16.436;99.370;2024-01-07T04:34:17;20.17;;;11.70;;
12601;SDS011;30282;16.436;99.370;2024-01-07T04:36:54;19.40;;;10.77;;
12601;SDS011;30282;16.436;99.370;2024-01-07T04:39:23;17.83;;;11.10;;
12601;SDS011;30282;16.436;99.370;2024-01-07T04:41:52;17.53;;;11.33;;
12601;SDS011;30282;16.436;99.370;2024-01-07T04:44:21;18.50;;;11.20;;
12601;SDS011;30282;16.436;99.370;2024-01-07T04:46:58;24.23;;;11.27;;
12601;SDS011;30282;16.436;99.370;2024-01-07T04:49:29;18.63;;;10.90;;
12601;SDS011;30282;16.436;99.370;2024-01-07T04:52:00;18.23;;;10.00;;
12601;SDS011;30282;16.436;99.370;2024-01-07T04:54:35;17.93;;;11.77;;
12601;SDS011;30282;16.436;99.370;2024-01-07T04:57:07;14.37;;;9.23;;
12601;SDS011;30282;16.436;99.370;2024-01-07T04:59:39;18.07;;;9.33;;
12601;SDS011;30282;16.436;99.370;2024-01-07T05:02:08;22.20;;;9.13;;
12601;SDS011;30282;16.436;99.370;2024-01-07T05:04:37;15.63;;;9.60;;
12601;SDS011;30282;16.436;99.370;2024-01-07T05:07:08;16.17;;;9.50;;
12601;SDS011;30282;16.436;99.370;2024-01-07T05:09:39;16.77;;;9.57;;
12601;SDS011;30282;16.436;99.370;2024-01-07T05:12:10;17.57;;;8.73;;
12601;SDS011;30282;16.436;99.370;2024-01-07T05:14:45;15.63;;;9.33;;
12601;SDS011;30282;16.436;99.370;2024-01-07T05:17:14;18.23;;;9.13;;
12601;SDS011;30282;16.436;99.370;2024-01-07T05:19:43;31.53;;;10.10;;
12601;SDS011;30282;16.436;99.370;2024-01-07T05:22:17;19.03;;;9.63;;
12601;SDS011;30282;16.436;99.370;2024-01-07T05:24:49;22.30;;;10.77;;
12601;SDS011;30282;16.436;99.370;2024-01-07T05:27:18;26.13;;;9.37;;
12601;SDS011;30282;16.436;99.370;2024-01-07T05:29:47;15.67;;;8.70;;
12601;SDS011;30282;16.436;99.370;2024-01-07T05:32:16;22.53;;;10.37;;
12601;SDS011;30282;16.436;99.370;2024-01-07T05:34:45;14.50;;;9.20;;
12601;SDS011;30282;16.436;99.370;2024-01-07T05:37:14;15.87;;;9.20;;
12601;SDS011;30282;16.436;99.370;2024-01-07T05:39:45;19.90;;;9.10;;
12601;SDS011;30282;16.436;99.370;2024-01-07T05:42:17;18.80;;;9.70;;
12601;SDS011;30282;16.436;99.370;2024-01-07T05:44:46;16.37;;;8.57;;
12601;SDS011;30282;16.436;99.370;2024-01-07T05:47:15;12.50;;;8.43;;
12601;SDS011;30282;16.436;99.370;2024-01-07T05:49:46;14.90;;;9.17;;
12601;SDS011;30282;16.436;99.370;2024-01-07T05:52:15;15.77;;;8.90;;
12601;SDS011;30282;16.436;99.370;2024-01-07T05:54:46;27.40;;;8.50;;
12601;SDS011;30282;16.436;99.370;2024-01-07T05:57:15;15.30;;;8.60;;
12601;SDS011;30282;16.436;99.370;2024-01-07T05:59:44;16.50;;;8.50;;
12601;SDS011;30282;16.436;99.370;2024-01-07T06:02:13;15.93;;;8.80;;
12601;SDS011;30282;16.436;99.370;2024-01-07T06:04:42;20.10;;;8.33;;
12601;SDS011;30282;16.436;99.370;2024-01-07T06:07:12;18.87;;;8.00;;
12601;SDS011;30282;16.436;99.370;2024-01-07T06:09:42;15.33;;;7.90;;
12601;SDS011;30282;16.436;99.370;2024-01-07T06:12:12;12.33;;;7.20;;
12601;SDS011;30282;16.436;99.370;2024-01-07T06:14:41;19.03;;;8.23;;
12601;SDS011;30282;16.436;99.370;2024-01-07T06:17:10;14.40;;;7.90;;
12601;SDS011;30282;16.436;99.370;2024-01-07T06:19:39;13.97;;;7.37;;
12601;SDS011;30282;16.436;99.370;2024-01-07T06:22:11;19.30;;;9.10;;
12601;SDS011;30282;16.436;99.370;2024-01-07T06:24:40;27.13;;;8.70;;
12601;SDS011;30282;16.436;99.370;2024-01-07T06:27:10;17.93;;;8.70;;
12601;SDS011;30282;16.436;99.370;2024-01-07T06:29:40;12.17;;;7.30;;
12601;SDS011;30282;16.436;99.370;2024-01-07T06:32:09;12.27;;;7.13;;
12601;SDS011;30282;16.436;99.370;2024-01-07T06:34:38;18.23;;;8.27;;
12601;SDS011;30282;16.436;99.370;2024-01-07T06:37:08;12.17;;;7.30;;
12601;SDS011;30282;16.436;99.370;2024-01-07T06:39:37;16.13;;;7.70;;
12601;SDS011;30282;16.436;99.370;2024-01-07T06:42:07;13.67;;;7.77;;
12601;SDS011;30282;16.436;99.370;2024-01-07T06:44:36;14.57;;;7.67;;
12601;SDS011;30282;16.436;99.370;2024-01-07T06:47:06;14.10;;;6.87;;
12601;SDS011;30282;16.436;99.370;2024-01-07T06:49:35;20.90;;;7.90;;
12601;SDS011;30282;16.436;99.370;2024-01-07T06:52:04;18.20;;;9.00;;
12601;SDS011;30282;16.436;99.370;2024-01-07T06:54:33;15.63;;;7.20;;
12601;SDS011;30282;16.436;99.370;2024-01-07T06:57:03;22.77;;;8.93;;
12601;SDS011;30282;16.436;99.370;2024-01-07T06:59:34;17.60;;;8.03;;
12601;SDS011;30282;16.436;99.370;2024-01-07T07:02:03;16.33;;;8.70;;
12601;SDS011;30282;16.436;99.370;2024-01-07T07:04:32;14.93;;;7.80;;
12601;SDS011;30282;16.436;99.370;2024-01-07T07:07:01;14.40;;;8.27;;
12601;SDS011;30282;16.436;99.370;2024-01-07T07:09:31;11.60;;;7.43;;
12601;SDS011;30282;16.436;99.370;2024-01-07T07:12:00;14.30;;;7.87;;
12601;SDS011;30282;16.436;99.370;2024-01-07T07:14:30;18.40;;;8.07;;
12601;SDS011;30282;16.436;99.370;2024-01-07T07:17:00;12.60;;;7.80;;
12601;SDS011;30282;16.436;99.370;2024-01-07T07:19:29;16.83;;;9.00;;
12601;SDS011;30282;16.436;99.370;2024-01-07T07:21:59;20.23;;;8.87;;
12601;SDS011;30282;16.436;99.370;2024-01-07T07:24:28;12.73;;;8.20;;
12601;SDS011;30282;16.436;99.370;2024-01-07T07:26:57;19.37;;;8.23;;
12601;SDS011;30282;16.436;99.370;2024-01-07T07:29:26;19.87;;;8.43;;
12601;SDS011;30282;16.436;99.370;2024-01-07T07:31:55;21.00;;;8.70;;
12601;SDS011;30282;16.436;99.370;2024-01-07T07:34:26;13.83;;;7.77;;
12601;SDS011;30282;16.436;99.370;2024-01-07T07:36:55;14.17;;;7.30;;
12601;SDS011;30282;16.436;99.370;2024-01-07T07:39:24;13.13;;;7.73;;
12601;SDS011;30282;16.436;99.370;2024-01-07T07:41:53;22.80;;;8.77;;
12601;SDS011;30282;16.436;99.370;2024-01-07T07:44:22;21.53;;;7.83;;
12601;SDS011;30282;16.436;99.370;2024-01-07T07:46:51;11.90;;;7.57;;
12601;SDS011;30282;16.436;99.370;2024-01-07T07:49:20;17.90;;;8.57;;
12601;SDS011;30282;16.436;99.370;2024-01-07T07:51:51;16.67;;;8.87;;
12601;SDS011;30282;16.436;99.370;2024-01-07T07:54:20;13.23;;;8.00;;
12601;SDS011;30282;16.436;99.370;2024-01-07T07:56:49;18.33;;;8.50;;
12601;SDS011;30282;16.436;99.370;2024-01-07T07:59:18;22.77;;;8.07;;
12601;SDS011;30282;16.436;99.370;2024-01-07T08:01:47;19.07;;;9.27;;
12601;SDS011;30282;16.436;99.370;2024-01-07T08:04:16;20.07;;;8.53;;
12601;SDS011;30282;16.436;99.370;2024-01-07T08:06:45;16.33;;;8.33;;
12601;SDS011;30282;16.436;99.370;2024-01-07T08:09:16;24.57;;;7.60;;
12601;SDS011;30282;16.436;99.370;2024-01-07T08:11:45;14.93;;;7.70;;
12601;SDS011;30282;16.436;99.370;2024-01-07T08:14:17;19.20;;;8.50;;
12601;SDS011;30282;16.436;99.370;2024-01-07T08:16:46;14.80;;;9.17;;
12601;SDS011;30282;16.436;99.370;2024-01-07T08:19:16;15.27;;;8.30;;
12601;SDS011;30282;16.436;99.370;2024-01-07T08:21:46;17.63;;;8.83;;
12601;SDS011;30282;16.436;99.370;2024-01-07T08:24:16;23.50;;;9.70;;
12601;SDS011;30282;16.436;99.370;2024-01-07T08:26:45;15.97;;;8.80;;
12601;SDS011;30282;16.436;99.370;2024-01-07T08:29:20;14.40;;;8.67;;
12601;SDS011;30282;16.436;99.370;2024-01-07T08:31:59;16.40;;;8.40;;
12601;SDS011;30282;16.436;99.370;2024-01-07T08:34:33;19.73;;;9.47;;
12601;SDS011;30282;16.436;99.370;2024-01-07T08:37:07;16.73;;;9.27;;
12601;SDS011;30282;16.436;99.370;2024-01-07T08:39:41;18.37;;;9.20;;
12601;SDS011;30282;16.436;99.370;2024-01-07T08:42:15;18.30;;;8.73;;
12601;SDS011;30282;16.436;99.370;2024-01-07T08:44:45;19.63;;;9.30;;
12601;SDS011;30282;16.436;99.370;2024-01-07T08:47:17;13.70;;;9.00;;
12601;SDS011;30282;16.436;99.370;2024-01-07T08:49:46;19.20;;;8.50;;
12601;SDS011;30282;16.436;99.370;2024-01-07T08:52:15;19.27;;;10.30;;
12601;SDS011;30282;16.436;99.370;2024-01-07T08:54:46;24.40;;;14.20;;
12601;SDS011;30282;16.436;99.370;2024-01-07T08:57:15;25.93;;;11.83;;
12601;SDS011;30282;16.436;99.370;2024-01-07T08:59:44;15.13;;;10.00;;
12601;SDS011;30282;16.436;99.370;2024-01-07T09:02:13;19.63;;;11.23;;
12601;SDS011;30282;16.436;99.370;2024-01-07T09:04:42;16.17;;;9.90;;
12601;SDS011;30282;16.436;99.370;2024-01-07T09:07:12;23.20;;;11.37;;
12601;SDS011;30282;16.436;99.370;2024-01-07T09:09:42;23.63;;;11.10;;
12601;SDS011;30282;16.436;99.370;2024-01-07T09:12:13;20.13;;;12.00;;
12601;SDS011;30282;16.436;99.370;2024-01-07T09:14:42;29.67;;;11.90;;
12601;SDS011;30282;16.436;99.370;2024-01-07T09:17:11;34.00;;;13.30;;
12601;SDS011;30282;16.436;99.370;2024-01-07T09:19:42;24.70;;;11.90;;
12601;SDS011;30282;16.436;99.370;2024-01-07T09:22:14;28.93;;;11.97;;
12601;SDS011;30282;16.436;99.370;2024-01-07T09:24:43;30.70;;;10.80;;
12601;SDS011;30282;16.436;99.370;2024-01-07T09:27:14;21.37;;;11.40;;
12601;SDS011;30282;16.436;99.370;2024-01-07T09:29:43;19.23;;;11.07;;
12601;SDS011;30282;16.436;99.370;2024-01-07T09:32:12;24.33;;;11.47;;
12601;SDS011;30282;16.436;99.370;2024-01-07T09:34:41;22.03;;;11.37;;
12601;SDS011;30282;16.436;99.370;2024-01-07T09:37:10;25.00;;;11.30;;
12601;SDS011;30282;16.436;99.370;2024-01-07T09:39:39;21.37;;;11.20;;
12601;SDS011;30282;16.436;99.370;2024-01-07T09:42:12;21.67;;;11.50;;
12601;SDS011;30282;16.436;99.370;2024-01-07T09:44:43;19.57;;;11.70;;
12601;SDS011;30282;16.436;99.370;2024-01-07T09:47:13;18.97;;;10.50;;
12601;SDS011;30282;16.436;99.370;2024-01-07T09:49:42;24.70;;;12.43;;
12601;SDS011;30282;16.436;99.370;2024-01-07T09:52:14;19.53;;;12.00;;
12601;SDS011;30282;16.436;99.370;2024-01-07T09:54:43;21.30;;;11.47;;
12601;SDS011;30282;16.436;99.370;2024-01-07T09:57:18;20.50;;;12.17;;
12601;SDS011;30282;16.436;99.370;2024-01-07T09:59:48;20.87;;;11.53;;
12601;SDS011;30282;16.436;99.370;2024-01-07T10:02:17;28.43;;;11.50;;
12601;SDS011;30282;16.436;99.370;2024-01-07T10:04:46;23.97;;;12.37;;
12601;SDS011;30282;16.436;99.370;2024-01-07T10:07:15;23.23;;;12.03;;
12601;SDS011;30282;16.436;99.370;2024-01-07T10:09:45;31.47;;;11.80;;
12601;SDS011;30282;16.436;99.370;2024-01-07T10:12:14;26.53;;;12.23;;
12601;SDS011;30282;16.436;99.370;2024-01-07T10:14:45;24.40;;;13.37;;
12601;SDS011;30282;16.436;99.370;2024-01-07T10:17:15;23.53;;;13.27;;
12601;SDS011;30282;16.436;99.370;2024-01-07T10:19:44;29.70;;;12.20;;
12601;SDS011;30282;16.436;99.370;2024-01-07T10:22:14;26.47;;;12.33;;
12601;SDS011;30282;16.436;99.370;2024-01-07T10:24:43;27.47;;;11.77;;
12601;SDS011;30282;16.436;99.370;2024-01-07T10:27:14;25.90;;;11.30;;
12601;SDS011;30282;16.436;99.370;2024-01-07T10:29:45;28.33;;;11.17;;
12601;SDS011;30282;16.436;99.370;2024-01-07T10:32:18;22.23;;;12.20;;
12601;SDS011;30282;16.436;99.370;2024-01-07T10:34:58;23.93;;;12.17;;
12601;SDS011;30282;16.436;99.370;2024-01-07T10:37:36;23.40;;;12.43;;
12601;SDS011;30282;16.436;99.370;2024-01-07T10:40:06;26.20;;;12.03;;
12601;SDS011;30282;16.436;99.370;2024-01-07T10:42:39;17.77;;;10.67;;
12601;SDS011;30282;16.436;99.370;2024-01-07T10:45:12;27.17;;;11.80;;
12601;SDS011;30282;16.436;99.370;2024-01-07T10:47:44;23.00;;;12.90;;
12601;SDS011;30282;16.436;99.370;2024-01-07T10:50:19;26.90;;;12.73;;
12601;SDS011;30282;16.436;99.370;2024-01-07T10:52:57;35.63;;;13.10;;
12601;SDS011;30282;16.436;99.370;2024-01-07T10:55:32;26.13;;;12.63;;
12601;SDS011;30282;16.436;99.370;2024-01-07T10:58:03;25.80;;;13.67;;
12601;SDS011;30282;16.436;99.370;2024-01-07T11:00:35;28.20;;;14.17;;
12601;SDS011;30282;16.436;99.370;2024-01-07T11:03:09;30.27;;;15.30;;
12601;SDS011;30282;16.436;99.370;2024-01-07T11:05:47;33.70;;;16.20;;
12601;SDS011;30282;16.436;99.370;2024-01-07T11:08:22;32.10;;;17.60;;
12601;SDS011;30282;16.436;99.370;2024-01-07T11:11:02;33.80;;;17.97;;
12601;SDS011;30282;16.436;99.370;2024-01-07T11:13:38;35.77;;;16.40;;
12601;SDS011;30282;16.436;99.370;2024-01-07T11:16:11;37.60;;;18.43;;
12601;SDS011;30282;16.436;99.370;2024-01-07T11:18:45;37.77;;;18.47;;
12601;SDS011;30282;16.436;99.370;2024-01-07T11:21:23;38.03;;;19.20;;
12601;SDS011;30282;16.436;99.370;2024-01-07T11:23:53;40.83;;;18.70;;
12601;SDS011;30282;16.436;99.370;2024-01-07T11:26:22;89.60;;;21.57;;
12601;SDS011;30282;16.436;99.370;2024-01-07T11:28:51;43.37;;;18.27;;
12601;SDS011;30282;16.436;99.370;2024-01-07T11:37:07;31.30;;;18.80;;
12601;SDS011;30282;16.436;99.370;2024-01-07T11:39:39;37.17;;;17.93;;
12601;SDS011;30282;16.436;99.370;2024-01-07T11:42:11;36.40;;;17.60;;
12601;SDS011;30282;16.436;99.370;2024-01-07T11:44:45;32.33;;;18.40;;
12601;SDS011;30282;16.436;99.370;2024-01-07T11:47:18;36.20;;;18.53;;
12601;SDS011;30282;16.436;99.370;2024-01-07T11:49:47;30.87;;;18.00;;
12601;SDS011;30282;16.436;99.370;2024-01-07T11:52:17;68.37;;;20.30;;
12601;SDS011;30282;16.436;99.370;2024-01-07T11:54:49;39.60;;;19.37;;
12601;SDS011;30282;16.436;99.370;2024-01-07T11:57:26;35.27;;;19.87;;
12601;SDS011;30282;16.436;99.370;2024-01-07T12:00:00;37.87;;;19.10;;
12601;SDS011;30282;16.436;99.370;2024-01-07T12:02:34;32.33;;;16.90;;
12601;SDS011;30282;16.436;99.370;2024-01-07T12:05:03;33.43;;;17.47;;
12601;SDS011;30282;16.436;99.370;2024-01-07T12:07:33;40.03;;;17.67;;
12601;SDS011;30282;16.436;99.370;2024-01-07T12:10:06;69.23;;;19.13;;
12601;SDS011;30282;16.436;99.370;2024-01-07T12:12:43;70.50;;;19.50;;
12601;SDS011;30282;16.436;99.370;2024-01-07T12:15:18;39.97;;;17.00;;
12601;SDS011;30282;16.436;99.370;2024-01-07T12:17:57;31.73;;;16.07;;
12601;SDS011;30282;16.436;99.370;2024-01-07T12:20:27;33.90;;;18.40;;
12601;SDS011;30282;16.436;99.370;2024-01-07T12:22:57;33.43;;;18.40;;
12601;SDS011;30282;16.436;99.370;2024-01-07T12:25:32;34.20;;;18.70;;
12601;SDS011;30282;16.436;99.370;2024-01-07T12:28:02;41.53;;;18.43;;
12601;SDS011;30282;16.436;99.370;2024-01-07T12:30:37;36.17;;;17.53;;
12601;SDS011;30282;16.436;99.370;2024-01-07T12:33:10;38.40;;;17.73;;
12601;SDS011;30282;16.436;99.370;2024-01-07T12:35:39;39.20;;;19.63;;
12601;SDS011;30282;16.436;99.370;2024-01-07T12:38:08;38.80;;;17.20;;
12601;SDS011;30282;16.436;99.370;2024-01-07T12:40:40;36.63;;;18.60;;
12601;SDS011;30282;16.436;99.370;2024-01-07T12:43:10;35.03;;;18.70;;
12601;SDS011;30282;16.436;99.370;2024-01-07T12:45:42;38.40;;;17.63;;
12601;SDS011;30282;16.436;99.370;2024-01-07T12:48:14;40.43;;;20.00;;
12601;SDS011;30282;16.436;99.370;2024-01-07T12:50:47;34.83;;;19.03;;
12601;SDS011;30282;16.436;99.370;2024-01-07T12:53:19;43.97;;;21.70;;
12601;SDS011;30282;16.436;99.370;2024-01-07T12:55:49;39.83;;;21.10;;
12601;SDS011;30282;16.436;99.370;2024-01-07T12:58:18;43.10;;;22.60;;
12601;SDS011;30282;16.436;99.370;2024-01-07T13:00:48;61.77;;;26.90;;
12601;SDS011;30282;16.436;99.370;2024-01-07T13:03:19;41.30;;;23.20;;
12601;SDS011;30282;16.436;99.370;2024-01-07T13:05:50;41.00;;;23.30;;
12601;SDS011;30282;16.436;99.370;2024-01-07T13:08:19;43.40;;;23.03;;
12601;SDS011;30282;16.436;99.370;2024-01-07T13:10:54;37.50;;;21.83;;
12601;SDS011;30282;16.436;99.370;2024-01-07T13:13:27;53.83;;;27.40;;
12601;SDS011;30282;16.436;99.370;2024-01-07T13:15:59;36.70;;;20.90;;
12601;SDS011;30282;16.436;99.370;2024-01-07T13:18:32;45.00;;;23.07;;
12601;SDS011;30282;16.436;99.370;2024-01-07T13:21:02;45.83;;;21.17;;
12601;SDS011;30282;16.436;99.370;2024-01-07T13:23:32;36.80;;;21.23;;
12601;SDS011;30282;16.436;99.370;2024-01-07T13:26:01;42.53;;;24.50;;
12601;SDS011;30282;16.436;99.370;2024-01-07T13:28:32;47.50;;;23.60;;
12601;SDS011;30282;16.436;99.370;2024-01-07T13:31:01;39.00;;;25.10;;
12601;SDS011;30282;16.436;99.370;2024-01-07T13:33:34;48.27;;;24.33;;
12601;SDS011;30282;16.436;99.370;2024-01-07T13:36:03;45.30;;;25.30;;
12601;SDS011;30282;16.436;99.370;2024-01-07T13:38:35;47.50;;;23.83;;
12601;SDS011;30282;16.436;99.370;2024-01-07T13:41:07;49.67;;;24.40;;
12601;SDS011;30282;16.436;99.370;2024-01-07T13:43:36;65.20;;;30.60;;
12601;SDS011;30282;16.436;99.370;2024-01-07T13:46:06;71.77;;;28.90;;
12601;SDS011;30282;16.436;99.370;2024-01-07T13:48:37;56.30;;;28.67;;
12601;SDS011;30282;16.436;99.370;2024-01-07T13:51:08;54.67;;;26.20;;
12601;SDS011;30282;16.436;99.370;2024-01-07T13:53:40;42.60;;;25.10;;
12601;SDS011;30282;16.436;99.370;2024-01-07T13:56:11;43.53;;;26.83;;
12601;SDS011;30282;16.436;99.370;2024-01-07T13:58:40;44.60;;;25.40;;
12601;SDS011;30282;16.436;99.370;2024-01-07T14:01:15;48.23;;;24.33;;
12601;SDS011;30282;16.436;99.370;2024-01-07T14:03:46;62.83;;;29.47;;
12601;SDS011;30282;16.436;99.370;2024-01-07T14:06:18;57.80;;;28.37;;
12601;SDS011;30282;16.436;99.370;2024-01-07T14:08:49;43.33;;;26.30;;
12601;SDS011;30282;16.436;99.370;2024-01-07T14:11:22;42.90;;;25.57;;
12601;SDS011;30282;16.436;99.370;2024-01-07T14:13:54;59.43;;;27.70;;
12601;SDS011;30282;16.436;99.370;2024-01-07T14:16:26;49.70;;;27.17;;
12601;SDS011;30282;16.436;99.370;2024-01-07T14:18:58;41.80;;;24.80;;
12601;SDS011;30282;16.436;99.370;2024-01-07T14:21:28;49.07;;;26.60;;
12601;SDS011;30282;16.436;99.370;2024-01-07T14:23:57;43.67;;;27.33;;
12601;SDS011;30282;16.436;99.370;2024-01-07T14:26:26;59.10;;;25.90;;
12601;SDS011;30282;16.436;99.370;2024-01-07T14:28:56;44.70;;;24.60;;
12601;SDS011;30282;16.436;99.370;2024-01-07T14:31:25;50.80;;;24.37;;
12601;SDS011;30282;16.436;99.370;2024-01-07T14:33:54;39.43;;;23.03;;
12601;SDS011;30282;16.436;99.370;2024-01-07T14:36:25;38.87;;;23.90;;
12601;SDS011;30282;16.436;99.370;2024-01-07T14:38:54;41.17;;;22.60;;